sensor_id;sensor_type;location;lat;lon;timestamp;temperature;humidity
37342;DHT22;58643;49.052;8.518;2023-08-21T10:46:50;33.30;98.70
37342;DHT22;58643;49.052;8.518;2023-08-21T10:49:16;33.00;98.30
37342;DHT22;58643;49.052;8.518;2023-08-21T10:51:43;32.90;97.70
37342;DHT22;58643;49.052;8.518;2023-08-21T10:54:15;33.10;96.70
37342;DHT22;58643;49.052;8.518;2023-08-21T10:56:41;33.30;95.90
37342;DHT22;58643;49.052;8.518;2023-08-21T10:59:07;33.50;96.30
37342;DHT22;58643;49.052;8.518;2023-08-21T11:01:45;34.20;96.10
37342;DHT22;58643;49.052;8.518;2023-08-21T11:04:13;33.30;95.80
37342;DHT22;58643;49.052;8.518;2023-08-21T11:06:39;33.00;96.20
37342;DHT22;58643;49.052;8.518;2023-08-21T11:09:12;32.20;96.80
37342;DHT22;58643;49.052;8.518;2023-08-21T11:11:37;32.20;97.70
37342;DHT22;58643;49.052;8.518;2023-08-21T11:14:06;32.70;97.00
37342;DHT22;58643;49.052;8.518;2023-08-21T11:16:31;32.30;95.70
37342;DHT22;58643;49.052;8.518;2023-08-21T11:18:57;32.40;96.80
37342;DHT22;58643;49.052;8.518;2023-08-21T11:21:23;30.30;96.00
37342;DHT22;58643;49.052;8.518;2023-08-21T11:23:51;32.60;96.00
37342;DHT22;58643;49.052;8.518;2023-08-21T11:26:20;32.60;96.50
37342;DHT22;58643;49.052;8.518;2023-08-21T11:28:46;32.70;96.50
37342;DHT22;58643;49.052;8.518;2023-08-21T11:31:13;33.10;95.40
37342;DHT22;58643;49.052;8.518;2023-08-21T11:33:38;33.40;95.90
37342;DHT22;58643;49.052;8.518;2023-08-21T11:36:04;33.40;95.50
37342;DHT22;58643;49.052;8.518;2023-08-21T11:38:30;33.70;94.60
37342;DHT22;58643;49.052;8.518;2023-08-21T11:41:05;33.30;94.50
37342;DHT22;58643;49.052;8.518;2023-08-21T11:43:41;33.40;94.90
37342;DHT22;58643;49.052;8.518;2023-08-21T11:46:09;32.60;94.80
37342;DHT22;58643;49.052;8.518;2023-08-21T11:48:40;32.30;95.20
37342;DHT22;58643;49.052;8.518;2023-08-21T11:51:07;32.50;95.40
37342;DHT22;58643;49.052;8.518;2023-08-21T11:53:35;33.20;94.80
37342;DHT22;58643;49.052;8.518;2023-08-21T11:56:02;32.90;94.40
37342;DHT22;58643;49.052;8.518;2023-08-21T11:58:29;32.90;94.60
37342;DHT22;58643;49.052;8.518;2023-08-21T12:01:02;33.50;94.70
37342;DHT22;58643;49.052;8.518;2023-08-21T12:03:29;33.90;94.00
37342;DHT22;58643;49.052;8.518;2023-08-21T12:05:55;34.40;93.40
37342;DHT22;58643;49.052;8.518;2023-08-21T12:08:20;35.00;92.90
37342;DHT22;58643;49.052;8.518;2023-08-21T12:10:50;35.30;92.60
37342;DHT22;58643;49.052;8.518;2023-08-21T12:13:15;35.70;92.20
37342;DHT22;58643;49.052;8.518;2023-08-21T12:15:41;35.00;92.60
37342;DHT22;58643;49.052;8.518;2023-08-21T12:18:07;34.90;91.90
37342;DHT22;58643;49.052;8.518;2023-08-21T12:20:32;34.50;92.20
37342;DHT22;58643;49.052;8.518;2023-08-21T12:22:59;34.60;92.00
37342;DHT22;58643;49.052;8.518;2023-08-21T12:25:24;34.90;92.10
37342;DHT22;58643;49.052;8.518;2023-08-21T12:27:50;34.70;91.80
37342;DHT22;58643;49.052;8.518;2023-08-21T12:30:16;34.80;92.10
37342;DHT22;58643;49.052;8.518;2023-08-21T12:32:41;35.30;91.80
37342;DHT22;58643;49.052;8.518;2023-08-21T12:35:07;35.60;91.30
37342;DHT22;58643;49.052;8.518;2023-08-21T12:37:33;35.80;90.40
37342;DHT22;58643;49.052;8.518;2023-08-21T12:39:59;36.30;90.20
37342;DHT22;58643;49.052;8.518;2023-08-21T12:42:24;36.90;88.90
37342;DHT22;58643;49.052;8.518;2023-08-21T12:44:50;37.30;87.60
37342;DHT22;58643;49.052;8.518;2023-08-21T12:47:15;37.30;87.20
37342;DHT22;58643;49.052;8.518;2023-08-21T12:49:41;37.40;85.90
37342;DHT22;58643;49.052;8.518;2023-08-21T12:52:07;37.90;86.40
37342;DHT22;58643;49.052;8.518;2023-08-21T12:54:32;38.30;85.50
37342;DHT22;58643;49.052;8.518;2023-08-21T12:56:58;38.50;84.30
37342;DHT22;58643;49.052;8.518;2023-08-21T12:59:23;37.40;84.30
37342;DHT22;58643;49.052;8.518;2023-08-21T13:01:49;37.70;85.00
37342;DHT22;58643;49.052;8.518;2023-08-21T13:04:15;37.50;84.80
37342;DHT22;58643;49.052;8.518;2023-08-21T13:06:40;38.20;82.00
37342;DHT22;58643;49.052;8.518;2023-08-21T13:09:07;38.50;80.50
37342;DHT22;58643;49.052;8.518;2023-08-21T13:11:32;38.40;80.50
37342;DHT22;58643;49.052;8.518;2023-08-21T13:13:58;39.10;80.70
37342;DHT22;58643;49.052;8.518;2023-08-21T13:16:23;39.60;78.40
37342;DHT22;58643;49.052;8.518;2023-08-21T13:18:49;40.10;77.00
37342;DHT22;58643;49.052;8.518;2023-08-21T13:21:15;40.50;77.00
37342;DHT22;58643;49.052;8.518;2023-08-21T13:23:40;40.80;75.40
37342;DHT22;58643;49.052;8.518;2023-08-21T13:26:06;41.00;75.50
37342;DHT22;58643;49.052;8.518;2023-08-21T13:28:31;41.20;72.70
37342;DHT22;58643;49.052;8.518;2023-08-21T13:30:57;40.70;72.10
37342;DHT22;58643;49.052;8.518;2023-08-21T13:33:23;40.60;72.20
37342;DHT22;58643;49.052;8.518;2023-08-21T13:35:49;40.80;72.40
37342;DHT22;58643;49.052;8.518;2023-08-21T13:38:15;41.00;71.80
37342;DHT22;58643;49.052;8.518;2023-08-21T13:40:41;40.00;72.30
37342;DHT22;58643;49.052;8.518;2023-08-21T13:43:07;40.00;72.60
37342;DHT22;58643;49.052;8.518;2023-08-21T13:45:35;41.40;71.20
37342;DHT22;58643;49.052;8.518;2023-08-21T13:48:01;42.30;67.80
37342;DHT22;58643;49.052;8.518;2023-08-21T13:50:26;42.30;68.00
37342;DHT22;58643;49.052;8.518;2023-08-21T13:52:52;42.80;65.30
37342;DHT22;58643;49.052;8.518;2023-08-21T13:55:18;43.70;65.90
37342;DHT22;58643;49.052;8.518;2023-08-21T13:57:43;43.40;64.20
37342;DHT22;58643;49.052;8.518;2023-08-21T14:00:10;43.70;63.50
37342;DHT22;58643;49.052;8.518;2023-08-21T14:02:40;44.90;61.80
37342;DHT22;58643;49.052;8.518;2023-08-21T14:05:07;45.20;60.80
37342;DHT22;58643;49.052;8.518;2023-08-21T14:07:34;44.30;61.20
37342;DHT22;58643;49.052;8.518;2023-08-21T14:10:00;44.10;61.60
37342;DHT22;58643;49.052;8.518;2023-08-21T14:12:28;42.60;62.70
37342;DHT22;58643;49.052;8.518;2023-08-21T14:14:54;43.20;63.50
37342;DHT22;58643;49.052;8.518;2023-08-21T14:17:20;43.70;61.60
37342;DHT22;58643;49.052;8.518;2023-08-21T14:19:46;43.20;61.40
37342;DHT22;58643;49.052;8.518;2023-08-21T14:22:11;42.70;62.90
37342;DHT22;58643;49.052;8.518;2023-08-21T14:24:37;41.90;64.00
37342;DHT22;58643;49.052;8.518;2023-08-21T14:27:03;41.90;63.30
37342;DHT22;58643;49.052;8.518;2023-08-21T14:29:28;41.50;63.40
37342;DHT22;58643;49.052;8.518;2023-08-21T14:31:54;41.40;63.50
37342;DHT22;58643;49.052;8.518;2023-08-21T14:34:20;41.30;64.30
37342;DHT22;58643;49.052;8.518;2023-08-21T14:36:47;41.40;63.70
37342;DHT22;58643;49.052;8.518;2023-08-21T14:39:13;41.10;63.80
37342;DHT22;58643;49.052;8.518;2023-08-21T14:41:40;40.60;64.50
37342;DHT22;58643;49.052;8.518;2023-08-21T14:44:06;40.70;63.70
37342;DHT22;58643;49.052;8.518;2023-08-21T14:46:32;39.80;64.00
37342;DHT22;58643;49.052;8.518;2023-08-21T14:48:59;38.50;65.80
37342;DHT22;58643;49.052;8.518;2023-08-21T14:51:24;37.70;67.10
37342;DHT22;58643;49.052;8.518;2023-08-21T14:53:50;37.50;67.70
37342;DHT22;58643;49.052;8.518;2023-08-21T14:56:15;37.20;68.60
37342;DHT22;58643;49.052;8.518;2023-08-21T14:58:41;38.90;67.10
37342;DHT22;58643;49.052;8.518;2023-08-21T15:01:09;40.00;63.70
37342;DHT22;58643;49.052;8.518;2023-08-21T15:03:36;40.30;62.70
37342;DHT22;58643;49.052;8.518;2023-08-21T15:06:01;40.80;62.50
37342;DHT22;58643;49.052;8.518;2023-08-21T15:08:28;41.90;61.90
37342;DHT22;58643;49.052;8.518;2023-08-21T15:10:54;43.60;60.00
37342;DHT22;58643;49.052;8.518;2023-08-21T15:13:19;44.00;59.20
37342;DHT22;58643;49.052;8.518;2023-08-21T15:15:45;42.30;59.20
37342;DHT22;58643;49.052;8.518;2023-08-21T15:18:10;42.80;59.20
37342;DHT22;58643;49.052;8.518;2023-08-21T15:20:36;40.90;58.10
37342;DHT22;58643;49.052;8.518;2023-08-21T15:23:02;42.50;58.30
37342;DHT22;58643;49.052;8.518;2023-08-21T15:25:27;44.00;58.10
37342;DHT22;58643;49.052;8.518;2023-08-21T15:27:53;45.20;56.50
37342;DHT22;58643;49.052;8.518;2023-08-21T15:30:18;45.30;55.30
37342;DHT22;58643;49.052;8.518;2023-08-21T15:32:44;43.80;56.80
37342;DHT22;58643;49.052;8.518;2023-08-21T15:35:11;43.80;56.30
37342;DHT22;58643;49.052;8.518;2023-08-21T15:37:36;43.70;57.80
37342;DHT22;58643;49.052;8.518;2023-08-21T15:40:02;44.50;56.90
37342;DHT22;58643;49.052;8.518;2023-08-21T15:42:28;45.20;58.30
37342;DHT22;58643;49.052;8.518;2023-08-21T15:44:53;45.20;56.00
37342;DHT22;58643;49.052;8.518;2023-08-21T15:47:19;44.80;56.70
37342;DHT22;58643;49.052;8.518;2023-08-21T15:49:46;43.30;56.80
37342;DHT22;58643;49.052;8.518;2023-08-21T15:52:12;43.60;56.80
37342;DHT22;58643;49.052;8.518;2023-08-21T15:54:38;42.80;57.50
37342;DHT22;58643;49.052;8.518;2023-08-21T15:57:03;44.30;56.90
37342;DHT22;58643;49.052;8.518;2023-08-21T15:59:33;44.70;57.30
37342;DHT22;58643;49.052;8.518;2023-08-21T16:01:59;45.10;56.30
37342;DHT22;58643;49.052;8.518;2023-08-21T16:04:25;44.80;56.50
37342;DHT22;58643;49.052;8.518;2023-08-21T16:06:50;45.30;56.30
37342;DHT22;58643;49.052;8.518;2023-08-21T16:09:17;44.80;56.30
37342;DHT22;58643;49.052;8.518;2023-08-21T16:11:46;45.30;55.80
37342;DHT22;58643;49.052;8.518;2023-08-21T16:14:11;45.40;56.50
37342;DHT22;58643;49.052;8.518;2023-08-21T16:16:39;45.30;54.80
37342;DHT22;58643;49.052;8.518;2023-08-21T16:19:04;45.30;55.20
37342;DHT22;58643;49.052;8.518;2023-08-21T16:21:30;45.10;55.30
37342;DHT22;58643;49.052;8.518;2023-08-21T16:23:56;44.40;55.60
37342;DHT22;58643;49.052;8.518;2023-08-21T16:26:21;44.60;55.90
37342;DHT22;58643;49.052;8.518;2023-08-21T16:28:47;44.10;56.70
37342;DHT22;58643;49.052;8.518;2023-08-21T16:31:15;44.60;56.30
37342;DHT22;58643;49.052;8.518;2023-08-21T16:33:41;44.60;55.90
37342;DHT22;58643;49.052;8.518;2023-08-21T16:36:07;44.60;56.30
37342;DHT22;58643;49.052;8.518;2023-08-21T16:38:33;44.30;56.10
37342;DHT22;58643;49.052;8.518;2023-08-21T16:40:59;43.50;57.10
37342;DHT22;58643;49.052;8.518;2023-08-21T16:43:24;43.20;57.70
